Time;durP1;ratioP1;P1;durP2;ratioP2;P2;SDS_P1;SDS_P2;PMS_P1;PMS_P2;Temp;Humidity;BMP_temperature;BMP_pressure;BME280_temperature;BME280_humidity;BME280_pressure;Samples;Min_cycle;Max_cycle;Signal;HPM_P1;HPM_P2
2020/12/27 00:00:18;;;;;;;4.82;1.30;;;20.80;49.20;;;;;;5032396;28;20025;-58
2020/12/27 00:02:44;;;;;;;2.47;1.20;;;20.80;49.10;;;;;;5029878;28;20084;-45
2020/12/27 00:05:09;;;;;;;1.30;1.02;;;20.80;49.10;;;;;;5032246;28;20021;-59
2020/12/27 00:07:36;;;;;;;1.67;1.00;;;20.80;49.00;;;;;;5030120;28;20026;-58
2020/12/27 00:10:04;;;;;;;2.53;1.23;;;20.80;49.00;;;;;;5031823;28;20521;-56
2020/12/27 00:12:29;;;;;;;1.27;1.17;;;20.80;48.90;;;;;;5031028;28;20493;-59
2020/12/27 00:14:55;;;;;;;2.22;1.20;;;20.80;48.90;;;;;;5032195;28;20017;-51
2020/12/27 00:17:21;;;;;;;1.60;1.20;;;20.80;48.80;;;;;;5031709;28;20048;-58
2020/12/27 00:19:46;;;;;;;1.58;1.20;;;20.80;48.80;;;;;;5028702;28;20025;-59
2020/12/27 00:22:13;;;;;;;1.73;1.42;;;20.80;48.70;;;;;;5032196;28;20026;-59
2020/12/27 00:24:38;;;;;;;1.77;1.20;;;20.80;48.70;;;;;;5031162;28;20037;-58
2020/12/27 00:27:04;;;;;;;1.05;0.93;;;20.80;48.60;;;;;;5032352;28;20417;-58
2020/12/27 00:29:30;;;;;;;2.08;1.30;;;20.70;48.50;;;;;;5030990;28;20513;-58
2020/12/27 00:31:56;;;;;;;2.88;1.05;;;20.70;48.50;;;;;;5031634;28;20021;-65
2020/12/27 00:34:23;;;;;;;1.70;1.30;;;20.70;48.50;;;;;;5031105;28;20025;-64
2020/12/27 00:36:50;;;;;;;3.25;1.23;;;20.70;48.40;;;;;;5031292;28;20025;-60
2020/12/27 00:39:21;;;;;;;1.45;1.08;;;20.70;48.40;;;;;;5031106;28;20471;-59
2020/12/27 00:41:47;;;;;;;1.50;1.00;;;20.70;48.30;;;;;;5030894;28;20031;-60
2020/12/27 00:44:13;;;;;;;1.42;0.98;;;20.70;48.20;;;;;;5028577;28;20063;-53
2020/12/27 00:46:39;;;;;;;2.17;1.23;;;20.70;48.20;;;;;;5030753;28;20459;-58
2020/12/27 00:49:04;;;;;;;2.65;1.17;;;20.70;48.20;;;;;;5031208;28;20036;-61
2020/12/27 00:51:30;;;;;;;1.83;1.02;;;20.70;48.20;;;;;;5030342;28;20034;-58
2020/12/27 00:53:56;;;;;;;1.83;1.10;;;20.70;48.10;;;;;;5031180;28;20375;-59
2020/12/27 00:56:22;;;;;;;2.28;1.20;;;20.70;48.00;;;;;;5030965;28;20096;-60
2020/12/27 00:58:47;;;;;;;1.67;1.10;;;20.70;48.00;;;;;;5030874;28;20412;-57
2020/12/27 01:01:14;;;;;;;2.00;1.10;;;20.70;48.00;;;;;;5032071;28;20021;-58
2020/12/27 01:03:41;;;;;;;2.17;1.10;;;20.70;47.90;;;;;;5030402;28;20148;-45
2020/12/27 01:06:07;;;;;;;1.83;1.27;;;20.70;47.90;;;;;;5031026;28;20038;-60
2020/12/27 01:08:33;;;;;;;2.45;1.52;;;20.70;47.80;;;;;;5030031;28;20057;-60
2020/12/27 01:11:03;;;;;;;2.03;1.30;;;20.70;47.80;;;;;;5031028;28;20053;-56
2020/12/27 01:13:29;;;;;;;1.42;1.00;;;20.70;47.80;;;;;;5030321;28;20045;-53
2020/12/27 01:15:55;;;;;;;1.55;1.10;;;20.70;47.70;;;;;;5030681;28;20029;-60
2020/12/27 01:18:20;;;;;;;1.33;1.00;;;20.70;47.60;;;;;;5030749;28;20026;-62
2020/12/27 01:20:46;;;;;;;1.70;1.05;;;20.70;47.60;;;;;;5030138;28;20479;-60
2020/12/27 01:23:12;;;;;;;2.78;1.42;;;20.70;47.60;;;;;;5027944;28;20030;-58
2020/12/27 01:25:38;;;;;;;2.38;1.20;;;20.70;47.50;;;;;;5029594;28;20025;-59
2020/12/27 01:28:04;;;;;;;2.03;1.20;;;20.70;47.40;;;;;;5031061;28;20022;-46
2020/12/27 01:30:29;;;;;;;3.17;1.50;;;20.70;47.40;;;;;;5029645;28;20034;-61
2020/12/27 01:32:55;;;;;;;2.05;1.38;;;20.70;47.40;;;;;;5030454;28;20052;-60
2020/12/27 01:35:21;;;;;;;1.92;1.10;;;20.70;47.30;;;;;;5030336;28;20017;-62
2020/12/27 01:37:46;;;;;;;1.67;1.20;;;20.70;47.30;;;;;;5029871;28;20479;-58
2020/12/27 01:40:12;;;;;;;2.28;0.90;;;20.70;47.20;;;;;;5027457;28;20045;-60
2020/12/27 01:42:38;;;;;;;5.00;1.30;;;20.70;47.20;;;;;;5029545;28;20038;-58
2020/12/27 01:45:05;;;;;;;1.48;1.27;;;20.70;47.30;;;;;;5030626;28;20030;-61
2020/12/27 01:47:34;;;;;;;2.15;1.10;;;20.70;47.20;;;;;;5029712;28;20078;-59
2020/12/27 01:50:00;;;;;;;2.35;1.25;;;20.70;47.10;;;;;;5030299;28;20025;-60
2020/12/27 01:52:26;;;;;;;1.42;1.13;;;20.70;47.10;;;;;;5029502;28;20463;-60
2020/12/27 01:54:53;;;;;;;2.13;1.38;;;20.70;47.10;;;;;;5027699;28;20022;-59
2020/12/27 01:57:54;;;;;;;1.50;1.10;;;20.70;47.00;;;;;;5030264;28;20028;-59
2020/12/27 02:00:20;;;;;;;2.90;1.25;;;20.70;47.00;;;;;;5023160;28;20540;-59
2020/12/27 02:02:47;;;;;;;2.65;1.00;;;20.70;47.00;;;;;;5030393;28;20025;-58
2020/12/27 02:05:13;;;;;;;2.38;1.20;;;20.70;47.00;;;;;;5031554;28;20073;-58
2020/12/27 02:07:39;;;;;;;2.08;1.20;;;20.70;46.90;;;;;;5030869;28;20479;-59
2020/12/27 02:10:05;;;;;;;1.52;1.10;;;20.70;46.90;;;;;;5032112;28;20022;-58
2020/12/27 02:12:31;;;;;;;1.42;0.98;;;20.70;46.80;;;;;;5030659;28;20036;-63
2020/12/27 02:14:56;;;;;;;1.42;1.15;;;20.70;46.80;;;;;;5031687;28;20030;-58
2020/12/27 02:17:22;;;;;;;1.75;1.02;;;20.70;46.70;;;;;;5030249;28;20028;-62
2020/12/27 02:19:47;;;;;;;3.00;1.10;;;20.70;46.70;;;;;;5031046;28;20034;-59
2020/12/27 02:22:13;;;;;;;1.20;1.00;;;20.70;46.70;;;;;;5031259;28;20379;-58
2020/12/27 02:24:39;;;;;;;2.53;1.30;;;20.70;46.60;;;;;;5030426;28;20435;-58
2020/12/27 02:27:05;;;;;;;1.88;1.02;;;20.70;46.60;;;;;;5031865;28;20033;-58
2020/12/27 02:29:35;;;;;;;1.75;1.02;;;20.70;46.50;;;;;;5030455;28;20422;-59
2020/12/27 02:32:01;;;;;;;2.05;1.30;;;20.70;46.60;;;;;;5031411;28;20029;-58
2020/12/27 02:34:27;;;;;;;6.78;1.77;;;20.70;46.50;;;;;;5030541;28;20390;-60
2020/12/27 02:36:52;;;;;;;1.65;1.20;;;20.70;46.50;;;;;;5031552;28;20025;-57
2020/12/27 02:39:21;;;;;;;1.42;1.08;;;20.70;46.40;;;;;;5031301;28;20541;-58
2020/12/27 02:41:50;;;;;;;1.45;1.00;;;20.70;46.30;;;;;;5030282;28;20107;-58
2020/12/27 02:44:17;;;;;;;1.40;0.77;;;20.70;46.40;;;;;;5031486;28;20122;-57
2020/12/27 02:46:43;;;;;;;1.63;1.15;;;20.70;46.30;;;;;;5030350;28;20048;-57
2020/12/27 02:49:09;;;;;;;1.85;1.13;;;20.70;46.40;;;;;;5031507;28;20104;-57
2020/12/27 02:51:35;;;;;;;1.55;1.00;;;20.70;46.40;;;;;;5033995;28;20100;-58
2020/12/27 02:54:00;;;;;;;1.05;0.82;;;20.70;46.30;;;;;;5034667;28;20036;-58
2020/12/27 02:56:28;;;;;;;3.30;1.70;;;20.70;46.20;;;;;;5033882;28;20026;-62
2020/12/27 02:59:02;;;;;;;1.33;0.82;;;20.70;46.20;;;;;;5034596;28;20029;-57
2020/12/27 03:01:28;;;;;;;2.53;1.30;;;20.70;46.10;;;;;;5034033;28;20030;-59
2020/12/27 03:03:53;;;;;;;2.25;1.23;;;20.80;46.20;;;;;;5033391;28;20524;-59
2020/12/27 03:06:19;;;;;;;1.40;1.00;;;20.80;46.10;;;;;;5034462;28;20029;-57
2020/12/27 03:08:45;;;;;;;1.70;1.27;;;20.80;46.10;;;;;;5033995;28;20136;-57
2020/12/27 03:11:11;;;;;;;1.73;1.10;;;20.70;46.00;;;;;;5034517;28;20029;-50
2020/12/27 03:13:37;;;;;;;1.55;1.00;;;20.80;46.00;;;;;;5033559;28;20111;-58
2020/12/27 03:16:05;;;;;;;2.28;1.10;;;20.80;46.00;;;;;;5034353;28;20057;-58
2020/12/27 03:18:32;;;;;;;2.35;1.40;;;20.80;46.00;;;;;;5033483;28;20048;-59
2020/12/27 03:20:58;;;;;;;1.48;0.98;;;20.80;46.00;;;;;;5034253;28;20029;-58
2020/12/27 03:23:24;;;;;;;1.42;1.27;;;20.80;45.90;;;;;;5034102;28;20033;-61
2020/12/27 03:25:49;;;;;;;2.20;1.30;;;20.80;45.90;;;;;;5033567;28;20088;-59
2020/12/27 03:28:15;;;;;;;1.63;1.00;;;20.80;45.90;;;;;;5034309;28;20474;-58
2020/12/27 03:30:42;;;;;;;1.45;1.05;;;20.80;45.80;;;;;;5033428;28;20032;-61
2020/12/27 03:33:08;;;;;;;1.38;1.05;;;20.80;45.80;;;;;;5033098;28;20037;-59
2020/12/27 03:35:34;;;;;;;2.03;1.00;;;20.80;45.80;;;;;;5033179;28;20441;-59
2020/12/27 03:37:59;;;;;;;2.25;1.25;;;20.80;46.40;;;;;;5033978;28;20486;-58
2020/12/27 03:40:25;;;;;;;1.52;1.00;;;20.80;45.80;;;;;;5033752;28;20156;-61
2020/12/27 03:42:51;;;;;;;1.63;1.00;;;20.80;45.70;;;;;;5033807;28;20478;-58
2020/12/27 03:45:17;;;;;;;1.33;0.93;;;20.80;45.70;;;;;;5034075;28;20021;-58
2020/12/27 03:47:43;;;;;;;2.33;1.35;;;20.80;45.60;;;;;;5033173;28;20155;-58
2020/12/27 03:50:09;;;;;;;2.25;1.10;;;20.80;45.60;;;;;;5033630;28;20104;-58
2020/12/27 03:52:34;;;;;;;2.13;1.20;;;20.80;45.60;;;;;;5032907;28;20505;-59
2020/12/27 03:55:00;;;;;;;2.83;1.20;;;20.80;45.70;;;;;;5033850;28;20490;-58
2020/12/27 03:57:26;;;;;;;1.58;0.95;;;20.90;45.60;;;;;;5033420;28;20474;-61
2020/12/27 03:59:51;;;;;;;1.63;1.17;;;20.90;45.60;;;;;;5033180;28;20029;-58
2020/12/27 04:02:17;;;;;;;2.28;1.20;;;20.80;45.50;;;;;;5033334;28;20044;-54
2020/12/27 04:04:43;;;;;;;2.03;0.95;;;20.90;45.50;;;;;;5032764;28;20381;-56
2020/12/27 04:07:08;;;;;;;1.48;1.10;;;20.90;45.50;;;;;;5032150;28;20029;-58
2020/12/27 04:09:34;;;;;;;1.50;0.90;;;20.80;45.40;;;;;;5032349;28;20025;-59
2020/12/27 04:12:00;;;;;;;1.83;1.10;;;20.90;45.40;;;;;;5033490;28;20033;-58
2020/12/27 04:14:26;;;;;;;1.52;1.33;;;20.90;45.40;;;;;;5033391;28;20055;-61
2020/12/27 04:16:52;;;;;;;1.92;1.02;;;20.90;45.40;;;;;;5032754;28;20021;-58
2020/12/27 04:19:18;;;;;;;4.00;1.30;;;20.90;45.30;;;;;;5033087;28;20099;-58
2020/12/27 04:21:44;;;;;;;2.90;1.33;;;20.90;45.50;;;;;;5032307;28;20047;-58
2020/12/27 04:24:10;;;;;;;1.45;1.13;;;20.90;45.30;;;;;;5032972;28;20063;-59
2020/12/27 04:26:36;;;;;;;1.25;1.02;;;20.90;45.30;;;;;;5032333;28;20021;-58
2020/12/27 04:29:02;;;;;;;1.27;0.98;;;20.90;45.20;;;;;;5033186;28;20029;-58
2020/12/27 04:31:31;;;;;;;1.35;0.98;;;20.90;45.30;;;;;;5032352;28;20025;-61
2020/12/27 04:33:57;;;;;;;1.48;1.00;;;20.90;45.30;;;;;;5033120;28;20029;-58
2020/12/27 04:36:23;;;;;;;2.70;1.23;;;20.90;45.50;;;;;;5032897;28;20026;-62
2020/12/27 04:38:49;;;;;;;1.55;1.17;;;20.90;45.30;;;;;;5031639;28;20025;-59
2020/12/27 04:41:17;;;;;;;1.60;1.00;;;20.90;45.20;;;;;;5033118;28;20488;-58
2020/12/27 04:43:45;;;;;;;1.33;0.98;;;20.90;45.10;;;;;;5032244;28;20046;-58
2020/12/27 04:46:12;;;;;;;1.63;0.93;;;20.90;45.20;;;;;;5032795;28;20159;-59
2020/12/27 04:48:39;;;;;;;1.65;1.10;;;20.90;45.10;;;;;;5031734;28;20029;-57
2020/12/27 04:51:06;;;;;;;1.17;1.00;;;20.90;45.10;;;;;;5032862;28;20021;-54
2020/12/27 04:53:34;;;;;;;1.25;1.10;;;20.90;45.00;;;;;;5031664;28;20437;-59
2020/12/27 04:56:01;;;;;;;1.40;1.25;;;20.90;45.00;;;;;;5032613;28;20108;-58
2020/12/27 04:58:28;;;;;;;1.35;1.02;;;20.90;45.00;;;;;;5032073;28;20057;-61
2020/12/27 05:00:58;;;;;;;1.10;0.80;;;20.90;45.00;;;;;;5032581;28;20033;-51
2020/12/27 05:03:24;;;;;;;1.65;1.20;;;20.90;45.00;;;;;;5032120;28;20041;-58
2020/12/27 05:05:51;;;;;;;1.85;1.20;;;20.90;45.10;;;;;;5031648;28;20079;-58
2020/12/27 05:08:17;;;;;;;1.55;1.15;;;20.90;44.90;;;;;;5032033;28;20037;-58
2020/12/27 05:10:47;;;;;;;1.83;1.08;;;20.90;44.90;;;;;;5031531;28;20033;-58
2020/12/27 05:13:15;;;;;;;1.75;1.10;;;20.90;44.80;;;;;;5032307;28;20045;-58
2020/12/27 05:15:41;;;;;;;1.98;1.10;;;20.90;44.90;;;;;;5031574;28;20026;-58
2020/12/27 05:18:08;;;;;;;1.75;1.10;;;20.90;44.90;;;;;;5032222;28;20037;-59
2020/12/27 05:20:38;;;;;;;1.13;1.00;;;21.00;45.00;;;;;;5031256;28;20025;-56
2020/12/27 05:23:05;;;;;;;2.00;1.20;;;20.90;44.90;;;;;;5031888;28;20030;-56
2020/12/27 05:25:32;;;;;;;3.00;1.13;;;20.90;44.80;;;;;;5031480;28;20430;-62
2020/12/27 05:28:10;;;;;;;1.65;1.08;;;20.90;44.80;;;;;;5032175;28;20025;-57
2020/12/27 05:30:37;;;;;;;1.30;0.90;;;20.90;44.80;;;;;;5031190;28;20421;-59
2020/12/27 05:33:17;;;;;;;2.03;1.02;;;20.90;44.80;;;;;;5031794;28;20467;-58
2020/12/27 05:35:43;;;;;;;2.10;1.13;;;20.90;44.80;;;;;;5031097;28;20029;-59
2020/12/27 05:38:11;;;;;;;1.35;1.05;;;20.90;44.80;;;;;;5031996;28;20030;-59
2020/12/27 05:40:38;;;;;;;1.38;0.80;;;21.00;44.80;;;;;;5031060;28;20132;-59
2020/12/27 05:43:16;;;;;;;1.75;0.90;;;21.00;44.70;;;;;;5031930;28;20124;-58
2020/12/27 05:45:44;;;;;;;1.23;1.00;;;21.00;44.70;;;;;;5030919;28;20485;-59
2020/12/27 05:48:10;;;;;;;1.08;0.77;;;20.90;44.70;;;;;;5031924;28;20025;-59
2020/12/27 05:50:40;;;;;;;1.88;1.00;;;20.90;44.70;;;;;;5031199;28;20025;-59
2020/12/27 05:53:23;;;;;;;1.48;1.08;;;21.00;44.70;;;;;;5031949;28;20054;-59
2020/12/27 05:55:51;;;;;;;1.77;1.05;;;20.90;44.60;;;;;;5030994;28;20030;-59
2020/12/27 05:58:22;;;;;;;1.50;0.93;;;20.90;44.60;;;;;;5031955;28;20032;-58
2020/12/27 06:00:57;;;;;;;1.50;0.90;;;20.90;44.60;;;;;;5031282;28;20075;-59
2020/12/27 06:03:25;;;;;;;1.10;0.90;;;21.00;44.80;;;;;;5031667;28;20026;-65
2020/12/27 06:05:54;;;;;;;2.00;1.20;;;21.00;44.60;;;;;;5031001;28;20096;-59
2020/12/27 06:08:28;;;;;;;1.35;0.90;;;21.00;44.50;;;;;;5031709;28;20051;-58
2020/12/27 06:11:12;;;;;;;1.23;0.90;;;20.90;44.50;;;;;;5031116;28;20107;-59
2020/12/27 06:14:05;;;;;;;2.67;1.27;;;20.90;44.40;;;;;;5030938;28;20037;-59
2020/12/27 06:16:45;;;;;;;2.00;1.20;;;20.90;44.40;;;;;;5030098;28;20510;-61
2020/12/27 06:19:26;;;;;;;2.13;0.90;;;20.90;44.40;;;;;;5031741;28;20467;-58
2020/12/27 06:22:04;;;;;;;1.80;1.40;;;21.00;44.40;;;;;;5030606;28;20646;-59
2020/12/27 06:24:33;;;;;;;1.20;0.90;;;20.90;44.40;;;;;;5047333;28;20038;-58
2020/12/27 06:27:01;;;;;;;1.90;0.90;;;21.00;44.40;;;;;;5034929;28;20482;-59
2020/12/27 06:29:39;;;;;;;1.35;0.98;;;20.90;44.30;;;;;;5035408;28;20080;-57
2020/12/27 06:32:06;;;;;;;1.77;1.00;;;21.00;44.50;;;;;;5034246;28;20033;-59
2020/12/27 06:34:33;;;;;;;1.20;0.73;;;20.90;44.30;;;;;;5034974;28;20025;-61
2020/12/27 06:36:59;;;;;;;1.40;0.88;;;21.00;44.40;;;;;;5035120;28;20075;-59
2020/12/27 06:39:29;;;;;;;1.77;1.00;;;21.00;44.40;;;;;;5035106;28;20072;-58
2020/12/27 06:42:07;;;;;;;1.67;1.23;;;21.00;44.40;;;;;;5034166;28;20438;-59
2020/12/27 06:44:49;;;;;;;1.08;0.98;;;20.90;44.30;;;;;;5034692;28;20120;-61
2020/12/27 06:47:16;;;;;;;1.30;0.95;;;21.00;44.30;;;;;;5034945;28;20423;-60
2020/12/27 06:49:43;;;;;;;2.65;1.33;;;20.90;44.20;;;;;;5034265;28;20083;-59
2020/12/27 06:52:21;;;;;;;1.45;1.08;;;20.90;44.20;;;;;;5035008;28;20030;-59
2020/12/27 06:54:48;;;;;;;1.55;0.90;;;21.00;44.40;;;;;;5034093;28;20410;-59
2020/12/27 06:57:37;;;;;;;1.50;1.00;;;20.90;44.20;;;;;;5033381;28;20025;-48
2020/12/27 07:00:23;;;;;;;1.60;1.05;;;21.00;44.30;;;;;;5025288;28;20039;-58
2020/12/27 07:03:07;;;;;;;1.58;1.42;;;21.00;44.30;;;;;;5033917;28;20395;-59
2020/12/27 07:05:35;;;;;;;1.35;1.00;;;20.90;44.20;;;;;;5049535;28;20033;-61
2020/12/27 07:08:03;;;;;;;1.23;0.88;;;20.90;44.20;;;;;;5034703;28;20030;-59
2020/12/27 07:10:31;;;;;;;2.13;1.20;;;21.00;44.20;;;;;;5034875;28;20462;-58
2020/12/27 07:13:13;;;;;;;1.48;1.00;;;21.00;44.20;;;;;;5033924;28;20034;-50
2020/12/27 07:15:49;;;;;;;1.10;1.00;;;20.90;44.20;;;;;;5033892;28;20087;-59
2020/12/27 07:18:26;;;;;;;1.30;0.90;;;20.90;44.20;;;;;;5034511;28;20445;-59
2020/12/27 07:20:59;;;;;;;1.48;0.90;;;21.00;44.20;;;;;;5033744;28;20029;-59
2020/12/27 07:23:29;;;;;;;3.75;1.20;;;20.90;44.20;;;;;;5034484;28;20379;-59
2020/12/27 07:25:57;;;;;;;2.08;1.10;;;21.00;44.20;;;;;;5033516;28;20032;-59
2020/12/27 07:28:24;;;;;;;1.10;0.90;;;21.00;44.20;;;;;;5034258;28;20029;-62
2020/12/27 07:31:04;;;;;;;1.85;0.90;;;21.00;44.20;;;;;;5033413;28;20033;-59
2020/12/27 07:33:36;;;;;;;3.53;0.82;;;21.00;44.30;;;;;;5032551;28;20029;-59
2020/12/27 07:36:08;;;;;;;2.03;1.02;;;21.00;44.30;;;;;;5033198;28;20060;-58
2020/12/27 07:38:40;;;;;;;1.77;0.88;;;21.00;44.40;;;;;;5034006;28;20059;-61
2020/12/27 07:41:09;;;;;;;2.08;1.10;;;21.00;44.30;;;;;;5034203;28;20124;-59
2020/12/27 07:43:38;;;;;;;0.80;0.70;;;21.10;44.40;;;;;;5033637;28;20057;-61
2020/12/27 07:46:10;;;;;;;2.95;1.20;;;21.10;44.20;;;;;;5033727;28;20356;-54
2020/12/27 07:48:43;;;;;;;4.07;1.38;;;21.20;44.20;;;;;;5033115;28;20022;-56
2020/12/27 07:51:13;;;;;;;2.33;1.00;;;21.20;44.10;;;;;;5032535;28;20017;-58
2020/12/27 07:53:43;;;;;;;1.92;1.02;;;21.20;44.10;;;;;;5033226;28;20459;-59
2020/12/27 07:56:18;;;;;;;2.70;1.00;;;21.30;44.10;;;;;;5033947;28;20025;-59
2020/12/27 07:58:52;;;;;;;4.88;0.90;;;21.30;44.00;;;;;;5032880;28;20025;-55
2020/12/27 08:01:38;;;;;;;3.05;1.02;;;21.30;44.00;;;;;;5033559;28;20018;-57
2020/12/27 08:04:06;;;;;;;1.83;0.93;;;21.40;43.80;;;;;;5033114;28;20133;-59
2020/12/27 08:06:35;;;;;;;1.60;0.82;;;21.50;43.80;;;;;;5033463;28;20033;-60
2020/12/27 08:09:05;;;;;;;2.88;1.00;;;21.50;43.60;;;;;;5032988;28;20049;-51
2020/12/27 08:11:33;;;;;;;1.60;0.80;;;21.50;43.70;;;;;;5033656;28;20398;-59
2020/12/27 08:14:07;;;;;;;3.10;1.10;;;21.50;43.60;;;;;;5032420;28;20037;-58
2020/12/27 08:16:36;;;;;;;4.72;0.90;;;21.60;43.70;;;;;;5033096;28;20021;-59
2020/12/27 08:19:08;;;;;;;1.10;0.82;;;21.60;43.80;;;;;;5033114;28;20025;-58
2020/12/27 08:21:36;;;;;;;1.00;0.90;;;21.60;43.70;;;;;;5033005;28;20029;-61
2020/12/27 08:24:12;;;;;;;1.90;0.90;;;21.60;43.70;;;;;;5032964;28;20049;-58
2020/12/27 08:26:42;;;;;;;1.67;1.00;;;21.60;43.50;;;;;;5031252;28;20061;-62
2020/12/27 08:29:15;;;;;;;4.05;0.95;;;21.60;43.50;;;;;;5033079;28;20025;-58
2020/12/27 08:31:42;;;;;;;1.40;0.85;;;21.60;43.60;;;;;;5032293;28;20064;-58
2020/12/27 08:34:17;;;;;;;2.75;1.00;;;21.60;43.70;;;;;;5033004;28;20030;-58
2020/12/27 08:36:54;;;;;;;4.65;0.98;;;21.60;43.60;;;;;;5031846;28;20371;-57
2020/12/27 08:39:46;;;;;;;3.05;1.02;;;21.60;43.70;;;;;;5032665;28;20049;-58
2020/12/27 08:42:23;;;;;;;3.42;1.08;;;21.60;43.50;;;;;;5032880;28;20121;-56
2020/12/27 08:44:58;;;;;;;3.20;0.93;;;21.70;43.50;;;;;;5031690;28;20033;-59
2020/12/27 08:47:33;;;;;;;3.80;1.00;;;21.60;43.50;;;;;;5032035;28;20021;-58
2020/12/27 08:50:13;;;;;;;3.03;0.85;;;21.60;43.50;;;;;;5030841;28;20112;-57
2020/12/27 08:52:40;;;;;;;1.60;0.93;;;21.60;43.70;;;;;;5031869;28;20052;-61
2020/12/27 08:55:10;;;;;;;3.65;1.52;;;21.60;43.80;;;;;;5032628;28;20033;-58
2020/12/27 08:57:37;;;;;;;3.42;1.30;;;21.60;43.70;;;;;;5032641;28;20026;-62
2020/12/27 09:00:11;;;;;;;2.30;0.80;;;21.60;43.90;;;;;;5032165;28;20040;-58
2020/12/27 09:02:38;;;;;;;3.58;0.90;;;21.60;43.90;;;;;;5032260;28;20379;-61
2020/12/27 09:05:07;;;;;;;3.47;0.88;;;21.70;44.00;;;;;;5032311;28;20033;-57
2020/12/27 09:07:41;;;;;;;6.35;1.20;;;21.70;44.40;;;;;;5031969;28;20030;-59
2020/12/27 09:10:09;;;;;;;2.97;1.13;;;21.70;44.30;;;;;;5030200;28;20068;-57
2020/12/27 09:12:37;;;;;;;2.38;1.00;;;21.70;44.40;;;;;;5032136;28;20029;-61
2020/12/27 09:15:24;;;;;;;4.38;1.08;;;21.70;44.50;;;;;;5031276;28;20030;-48
2020/12/27 09:17:56;;;;;;;4.63;1.05;;;21.70;44.50;;;;;;5031463;28;20083;-55
2020/12/27 09:20:23;;;;;;;3.30;0.93;;;21.70;44.40;;;;;;5032185;28;20084;-60
2020/12/27 09:22:50;;;;;;;2.08;0.80;;;21.70;44.40;;;;;;5031144;28;20048;-60
2020/12/27 09:25:18;;;;;;;2.83;0.90;;;21.70;44.30;;;;;;5031791;28;20042;-49
2020/12/27 09:27:45;;;;;;;4.25;1.63;;;21.70;44.30;;;;;;5031062;28;20030;-51
2020/12/27 09:30:15;;;;;;;3.70;0.80;;;21.80;44.10;;;;;;5031760;28;20474;-47
2020/12/27 09:32:41;;;;;;;2.95;0.80;;;21.80;44.10;;;;;;5031496;28;20056;-56
2020/12/27 09:35:07;;;;;;;1.52;0.88;;;21.80;44.10;;;;;;5031862;28;20025;-58
2020/12/27 09:37:33;;;;;;;2.85;1.38;;;21.80;44.10;;;;;;5031413;28;20032;-58
2020/12/27 09:40:01;;;;;;;2.35;1.10;;;21.80;44.00;;;;;;5030986;28;20069;-56
2020/12/27 09:42:29;;;;;;;8.63;1.52;;;21.80;44.20;;;;;;5031471;28;20053;-59
2020/12/27 09:44:56;;;;;;;1.90;0.73;;;21.80;44.40;;;;;;5032062;28;20034;-51
2020/12/27 09:47:29;;;;;;;5.43;1.15;;;21.90;44.60;;;;;;5032006;28;20145;-58
2020/12/27 09:50:08;;;;;;;3.63;1.27;;;21.80;45.10;;;;;;5031051;28;20025;-47
2020/12/27 09:52:45;;;;;;;4.75;1.30;;;21.80;45.10;;;;;;5031601;28;20057;-53
2020/12/27 09:55:10;;;;;;;4.15;1.48;;;21.90;45.40;;;;;;5031925;28;20026;-57
2020/12/27 09:57:36;;;;;;;6.05;1.38;;;21.90;45.50;;;;;;5031538;28;20463;-58
2020/12/27 10:00:03;;;;;;;3.08;1.10;;;21.90;45.70;;;;;;5034128;28;20167;-55
2020/12/27 10:02:29;;;;;;;7.70;1.50;;;21.90;45.80;;;;;;5027767;28;20108;-58
2020/12/27 10:04:54;;;;;;;7.18;1.30;;;21.90;46.00;;;;;;5033753;28;20176;-56
2020/12/27 10:07:20;;;;;;;6.45;1.13;;;21.80;45.70;;;;;;5035537;28;20151;-46
2020/12/27 10:09:46;;;;;;;11.48;1.67;;;21.80;45.90;;;;;;5034605;28;20467;-47
2020/12/27 10:12:11;;;;;;;8.95;1.85;;;21.80;46.20;;;;;;5032036;28;20556;-46
2020/12/27 10:14:40;;;;;;;8.10;1.25;;;21.80;46.50;;;;;;5035246;28;20092;-47
2020/12/27 10:17:06;;;;;;;5.35;1.30;;;21.70;46.40;;;;;;5034871;28;20025;-55
2020/12/27 10:19:32;;;;;;;4.97;1.30;;;21.70;46.20;;;;;;5035674;28;20108;-47
2020/12/27 10:21:58;;;;;;;8.57;3.13;;;21.60;46.60;;;;;;5034428;28;20517;-50
2020/12/27 10:24:26;;;;;;;5.65;1.65;;;21.60;46.50;;;;;;5035543;28;20121;-45
2020/12/27 10:26:53;;;;;;;5.65;1.38;;;21.60;46.70;;;;;;5034489;28;20034;-57
2020/12/27 10:29:21;;;;;;;5.88;1.30;;;21.50;46.90;;;;;;5035324;28;20088;-57
2020/12/27 10:31:51;;;;;;;3.47;1.20;;;21.60;47.00;;;;;;5034014;28;20494;-62
2020/12/27 10:34:17;;;;;;;6.00;1.15;;;21.60;47.10;;;;;;5030472;28;20025;-50
2020/12/27 10:36:47;;;;;;;5.25;1.20;;;21.50;47.20;;;;;;5031101;28;20124;-55
2020/12/27 10:39:13;;;;;;;4.45;1.35;;;21.50;47.20;;;;;;5030524;28;20042;-53
2020/12/27 10:41:49;;;;;;;4.43;1.50;;;21.50;47.30;;;;;;5032693;28;20060;-61
2020/12/27 10:44:17;;;;;;;4.05;1.25;;;21.50;47.20;;;;;;5034730;28;20043;-47
2020/12/27 10:46:44;;;;;;;3.47;1.30;;;21.50;47.30;;;;;;5033693;28;20029;-52
2020/12/27 10:49:11;;;;;;;2.47;1.08;;;21.50;47.20;;;;;;5034929;28;20083;-49
2020/12/27 10:51:38;;;;;;;6.72;1.70;;;21.50;47.10;;;;;;5033717;28;20029;-44
2020/12/27 10:54:05;;;;;;;4.15;1.50;;;21.40;46.10;;;;;;5034067;28;20060;-45
2020/12/27 10:56:31;;;;;;;8.02;1.83;;;21.30;45.50;;;;;;5035053;28;20021;-49
2020/12/27 10:58:57;;;;;;;4.20;1.58;;;21.30;43.80;;;;;;5034149;28;20025;-50
2020/12/27 11:01:23;;;;;;;2.85;1.20;;;21.30;45.50;;;;;;5034524;28;20028;-49
2020/12/27 11:03:52;;;;;;;6.03;1.50;;;21.40;45.90;;;;;;5033917;28;20034;-49
2020/12/27 11:06:18;;;;;;;4.15;1.40;;;21.40;46.00;;;;;;5034783;28;20033;-46
2020/12/27 11:08:43;;;;;;;3.15;1.45;;;21.40;46.00;;;;;;5034299;28;20026;-56
2020/12/27 11:11:09;;;;;;;3.30;1.00;;;21.40;46.30;;;;;;5034348;28;20034;-47
2020/12/27 11:13:35;;;;;;;3.03;1.30;;;21.40;46.40;;;;;;5034987;28;20049;-48
2020/12/27 11:16:01;;;;;;;4.78;1.20;;;21.40;46.50;;;;;;5033850;28;20029;-48
2020/12/27 11:18:26;;;;;;;2.30;1.17;;;21.40;46.60;;;;;;5034301;28;20481;-46
2020/12/27 11:20:52;;;;;;;2.53;0.90;;;21.40;46.70;;;;;;5033760;28;20075;-58
2020/12/27 11:23:20;;;;;;;1.90;1.10;;;21.40;46.90;;;;;;5034067;28;20042;-48
2020/12/27 11:25:47;;;;;;;7.50;1.45;;;21.50;47.00;;;;;;5026196;28;20475;-60
2020/12/27 11:28:15;;;;;;;4.28;1.40;;;21.50;47.10;;;;;;5031594;28;20026;-42
2020/12/27 11:30:41;;;;;;;3.30;1.40;;;21.50;47.20;;;;;;5033482;28;20026;-58
2020/12/27 11:33:09;;;;;;;4.10;1.30;;;21.50;47.30;;;;;;5033065;28;20033;-49
2020/12/27 11:35:38;;;;;;;1.75;1.15;;;21.50;47.40;;;;;;5033826;28;20033;-48
2020/12/27 11:38:03;;;;;;;2.40;1.15;;;21.60;47.70;;;;;;5033484;28;20025;-43
2020/12/27 11:40:29;;;;;;;3.10;1.30;;;21.80;48.00;;;;;;5034263;28;20458;-47
2020/12/27 11:42:54;;;;;;;3.33;1.33;;;22.00;48.30;;;;;;5032975;28;20041;-46
2020/12/27 11:45:23;;;;;;;6.18;1.25;;;21.90;46.80;;;;;;5033959;28;20125;-53
2020/12/27 11:47:48;;;;;;;6.72;1.40;;;21.80;47.20;;;;;;5032838;28;20507;-52
2020/12/27 11:50:14;;;;;;;3.05;1.40;;;21.70;47.10;;;;;;5036387;28;20060;-56
2020/12/27 11:52:40;;;;;;;4.10;3.40;;;21.60;45.70;;;;;;5026288;28;20022;-54
2020/12/27 11:55:05;;;;;;;4.78;2.67;;;21.00;30.00;;;;;;5025033;28;20037;-43
2020/12/27 11:57:31;;;;;;;4.70;2.80;;;20.60;34.40;;;;;;5032427;28;20025;-42
2020/12/27 11:59:57;;;;;;;4.28;2.10;;;20.70;38.00;;;;;;5032048;28;20335;-39
2020/12/27 12:02:22;;;;;;;4.97;2.08;;;20.80;41.60;;;;;;5033393;28;20487;-47
2020/12/27 12:04:48;;;;;;;6.68;2.03;;;20.90;41.50;;;;;;5032461;28;20044;-46
2020/12/27 12:07:13;;;;;;;5.82;2.10;;;21.00;41.70;;;;;;5033293;28;20071;-51
2020/12/27 12:09:39;;;;;;;7.65;2.20;;;21.10;42.20;;;;;;5034793;28;20021;-49
2020/12/27 12:12:06;;;;;;;5.82;2.28;;;21.10;42.10;;;;;;5032707;28;20032;-54
2020/12/27 12:14:33;;;;;;;7.88;1.77;;;21.10;42.30;;;;;;5034756;28;20057;-54
2020/12/27 12:16:59;;;;;;;4.78;1.85;;;21.20;42.30;;;;;;5032921;28;20056;-51
2020/12/27 12:19:25;;;;;;;5.00;2.05;;;21.20;42.40;;;;;;5033131;28;20022;-48
2020/12/27 12:21:52;;;;;;;2.72;1.70;;;21.10;42.60;;;;;;5031206;28;20021;-41
2020/12/27 12:24:24;;;;;;;5.45;1.98;;;21.00;42.00;;;;;;5025839;28;20137;-48
2020/12/27 12:26:50;;;;;;;6.40;2.13;;;20.90;41.40;;;;;;5031525;28;20047;-45
2020/12/27 12:29:16;;;;;;;3.63;2.30;;;20.90;42.00;;;;;;5032486;28;20017;-52
2020/12/27 12:31:43;;;;;;;6.82;2.47;;;20.90;41.10;;;;;;5030550;28;20091;-56
2020/12/27 12:34:09;;;;;;;3.70;1.98;;;20.80;40.90;;;;;;5032614;28;20025;-57
2020/12/27 12:36:36;;;;;;;5.90;2.15;;;20.80;41.80;;;;;;5033036;28;20069;-41
2020/12/27 12:39:03;;;;;;;8.38;2.42;;;20.70;41.20;;;;;;5031718;28;20921;-48
2020/12/27 12:41:32;;;;;;;3.60;2.35;;;20.80;41.40;;;;;;5033014;28;20061;-39
2020/12/27 12:43:59;;;;;;;5.40;2.13;;;20.80;41.60;;;;;;5031842;28;20033;-53
2020/12/27 12:46:25;;;;;;;5.43;2.00;;;20.90;41.80;;;;;;5032126;28;20522;-46
2020/12/27 12:48:53;;;;;;;4.47;2.08;;;21.00;42.30;;;;;;5031425;28;20021;-44
2020/12/27 12:51:19;;;;;;;3.50;1.75;;;21.00;42.60;;;;;;5032652;28;20026;-46
2020/12/27 12:53:47;;;;;;;3.15;2.10;;;21.10;42.70;;;;;;5027898;28;20037;-57